Time;durP1;ratioP1;P1;durP2;ratioP2;P2;SDS_P1;SDS_P2;PMS_P1;PMS_P2;Temp;Humidity;BMP_temperature;BMP_pressure;BME280_temperature;BME280_humidity;BME280_pressure;Samples;Min_cycle;Max_cycle;Signal;HPM_P1;HPM_P2
2021/01/21 00:02:02;;;;;;;3.35;1.42;;;10.40;98.80;;;;;;5054056;28;20557;-89
2021/01/21 00:04:28;;;;;;;2.58;1.05;;;10.30;98.90;;;;;;5052662;28;20064;-89
2021/01/21 00:06:54;;;;;;;4.95;1.45;;;10.40;98.80;;;;;;5036356;28;20039;-88
2021/01/21 00:09:20;;;;;;;3.53;1.33;;;10.40;98.90;;;;;;5053231;28;20029;-89
2021/01/21 00:11:46;;;;;;;5.30;1.15;;;10.40;98.50;;;;;;5035944;28;20110;-87
2021/01/21 00:14:12;;;;;;;3.53;1.13;;;10.50;98.20;;;;;;5051084;28;20037;-89
2021/01/21 00:16:40;;;;;;;5.93;1.40;;;10.50;98.10;;;;;;5051835;28;20112;-88
2021/01/21 00:19:08;;;;;;;3.00;1.05;;;10.50;97.70;;;;;;5052949;28;20523;-89
2021/01/21 00:21:37;;;;;;;3.90;1.38;;;10.50;97.60;;;;;;5053974;28;20025;-89
2021/01/21 00:47:38;;;;;;;3.97;1.20;;;10.40;97.60;;;;;;5037629;28;20032;-87
2021/01/21 00:50:05;;;;;;;3.67;1.00;;;10.50;97.40;;;;;;5051225;28;20111;-87
2021/01/21 00:52:31;;;;;;;3.97;1.35;;;10.50;97.70;;;;;;5050499;28;20142;-90
2021/01/21 00:54:57;;;;;;;8.13;1.30;;;10.40;97.50;;;;;;5051659;28;20076;-87
2021/01/21 00:57:22;;;;;;;3.63;1.20;;;10.50;97.40;;;;;;5051526;28;20025;-87
2021/01/21 00:59:48;;;;;;;6.68;1.48;;;10.50;97.50;;;;;;5055965;28;20465;-87
2021/01/21 01:02:13;;;;;;;5.68;1.38;;;10.60;97.20;;;;;;5038379;28;20124;-88
2021/01/21 01:04:42;;;;;;;4.90;1.58;;;10.70;97.10;;;;;;5055927;28;20468;-87
2021/01/21 01:07:07;;;;;;;3.47;1.10;;;10.70;96.40;;;;;;5054858;28;20147;-86
2021/01/21 01:09:33;;;;;;;6.50;1.33;;;10.70;96.30;;;;;;5054421;28;20055;-88
2021/01/21 01:12:00;;;;;;;4.47;1.30;;;10.80;96.30;;;;;;5055771;28;20029;-88
2021/01/21 01:14:25;;;;;;;4.40;1.35;;;10.80;96.40;;;;;;5053995;28;20388;-87
2021/01/21 01:16:51;;;;;;;4.05;1.35;;;10.80;96.00;;;;;;5066956;28;20021;-87
2021/01/21 01:19:18;;;;;;;2.65;1.00;;;10.80;96.20;;;;;;5074422;28;20025;-88
2021/01/21 01:21:46;;;;;;;3.20;1.25;;;10.70;95.90;;;;;;5074581;28;20021;-87
2021/01/21 01:24:13;;;;;;;5.22;1.05;;;10.70;96.10;;;;;;5074588;28;20020;-87
2021/01/21 01:26:39;;;;;;;4.05;1.15;;;10.70;96.00;;;;;;5076101;28;20483;-89
2021/01/21 01:29:04;;;;;;;3.00;1.20;;;10.70;95.90;;;;;;5074632;28;20036;-88
2021/01/21 01:31:33;;;;;;;4.65;1.13;;;10.70;95.70;;;;;;5074280;28;20028;-88
2021/01/21 01:33:59;;;;;;;3.85;1.35;;;10.80;96.00;;;;;;5074488;28;20032;-88
2021/01/21 01:36:25;;;;;;;4.45;1.40;;;10.80;95.90;;;;;;5075526;28;20040;-87
2021/01/21 01:38:51;;;;;;;6.05;1.77;;;10.80;95.20;;;;;;5074259;28;20368;-88
2021/01/21 01:41:17;;;;;;;2.35;1.08;;;10.80;95.40;;;;;;5070910;28;20373;-87
2021/01/21 01:43:43;;;;;;;3.60;1.17;;;10.90;95.40;;;;;;5074247;28;20142;-87
2021/01/21 01:46:10;;;;;;;4.28;1.00;;;10.90;95.70;;;;;;5074254;28;20036;-88
2021/01/21 01:48:36;;;;;;;3.15;1.10;;;10.90;95.10;;;;;;5073207;28;20094;-87
2021/01/21 01:51:03;;;;;;;4.50;1.13;;;11.00;94.40;;;;;;5075198;28;20028;-87
2021/01/21 01:53:34;;;;;;;3.72;1.20;;;11.10;95.30;;;;;;5072489;28;20101;-87
2021/01/21 01:56:00;;;;;;;4.22;1.15;;;11.10;94.60;;;;;;5069688;28;20024;-86
2021/01/21 01:58:32;;;;;;;6.50;1.58;;;11.10;94.60;;;;;;5057214;28;20032;-88
2021/01/21 02:00:59;;;;;;;4.82;1.25;;;11.20;94.40;;;;;;5073875;28;20055;-87
2021/01/21 02:03:25;;;;;;;3.20;0.98;;;11.20;94.30;;;;;;5073802;28;20062;-87
2021/01/21 02:05:53;;;;;;;4.65;1.13;;;11.20;94.30;;;;;;5056638;28;20064;-88
2021/01/21 02:08:25;;;;;;;2.80;0.95;;;11.30;93.80;;;;;;5053254;28;20443;-89
2021/01/21 02:11:00;;;;;;;3.15;1.20;;;11.30;93.80;;;;;;5053535;28;20025;-87
2021/01/21 02:13:43;;;;;;;3.90;1.20;;;11.30;93.60;;;;;;5035514;28;20033;-87
2021/01/21 02:16:47;;;;;;;6.53;1.27;;;11.30;93.20;;;;;;5051748;28;20435;-88
2021/01/21 02:19:40;;;;;;;2.67;1.23;;;11.40;92.70;;;;;;5032375;28;20384;-88
2021/01/21 02:22:43;;;;;;;3.53;1.40;;;11.30;93.80;;;;;;5053480;28;20025;-87
2021/01/21 02:25:27;;;;;;;5.82;1.23;;;10.90;96.60;;;;;;5052535;28;20094;-86
2021/01/21 02:28:27;;;;;;;2.63;0.93;;;10.40;98.60;;;;;;5052731;28;20025;-89
2021/01/21 02:31:00;;;;;;;5.50;1.52;;;10.10;99.30;;;;;;5053380;28;20084;-87
2021/01/21 02:33:52;;;;;;;3.45;1.17;;;10.00;99.90;;;;;;5053255;28;20025;-86
2021/01/21 02:36:20;;;;;;;3.88;1.35;;;10.00;99.10;;;;;;5053146;28;20061;-86
2021/01/21 02:38:46;;;;;;;5.75;2.00;;;10.10;99.90;;;;;;5053196;28;20021;-88
2021/01/21 02:41:16;;;;;;;5.43;1.15;;;9.90;99.90;;;;;;5052745;28;20098;-89
2021/01/21 02:43:41;;;;;;;5.22;1.25;;;9.70;99.90;;;;;;5053415;28;20025;-87
2021/01/21 02:46:09;;;;;;;4.50;1.95;;;9.50;99.90;;;;;;5054454;28;20530;-88
2021/01/21 02:48:36;;;;;;;4.32;1.30;;;9.50;99.90;;;;;;5053098;28;20020;-87
2021/01/21 02:51:49;;;;;;;6.18;1.30;;;9.40;99.90;;;;;;5052568;28;20021;-88
2021/01/21 02:54:33;;;;;;;4.68;2.00;;;9.50;99.90;;;;;;5051687;28;20056;-87
2021/01/21 02:57:05;;;;;;;4.03;1.33;;;9.50;99.90;;;;;;5053160;28;20017;-87
2021/01/21 02:59:37;;;;;;;4.23;1.00;;;9.50;99.90;;;;;;5052984;28;20071;-88
2021/01/21 03:02:11;;;;;;;5.35;1.77;;;9.60;99.90;;;;;;5053131;28;20017;-88
2021/01/21 03:04:40;;;;;;;5.05;1.33;;;9.70;99.90;;;;;;5053918;28;20060;-87
2021/01/21 03:07:10;;;;;;;1.95;1.08;;;9.70;99.90;;;;;;5049477;28;20037;-88
2021/01/21 03:09:44;;;;;;;2.75;1.10;;;9.90;99.90;;;;;;5054100;28;20051;-88
2021/01/21 03:12:27;;;;;;;4.05;1.17;;;10.00;99.90;;;;;;5052886;28;20063;-87
2021/01/21 03:14:55;;;;;;;3.28;1.48;;;10.10;99.90;;;;;;5036111;28;20091;-88
2021/01/21 03:17:26;;;;;;;4.82;1.15;;;10.20;99.90;;;;;;5052769;28;20108;-88
2021/01/21 03:19:54;;;;;;;3.63;1.20;;;10.20;99.90;;;;;;5052692;28;20029;-88
2021/01/21 03:22:19;;;;;;;5.18;1.25;;;10.00;99.90;;;;;;5054106;28;20024;-88
2021/01/21 03:24:46;;;;;;;2.05;0.95;;;9.90;99.90;;;;;;5052551;28;20354;-89
2021/01/21 03:27:12;;;;;;;5.13;1.10;;;9.90;99.90;;;;;;5052702;28;20021;-89
2021/01/21 03:29:40;;;;;;;5.10;1.02;;;10.00;99.90;;;;;;5052530;28;20090;-88
2021/01/21 03:32:06;;;;;;;2.22;1.00;;;9.90;99.90;;;;;;5052514;28;20017;-87
2021/01/21 03:34:32;;;;;;;2.95;0.90;;;9.90;99.90;;;;;;5035746;28;20451;-87
2021/01/21 03:36:58;;;;;;;2.72;0.80;;;10.00;99.90;;;;;;5052488;28;20029;-88
2021/01/21 03:39:23;;;;;;;2.88;0.70;;;10.10;99.90;;;;;;5052530;28;20552;-88
2021/01/21 03:41:50;;;;;;;4.03;0.90;;;10.00;99.90;;;;;;5052043;28;20060;-88
2021/01/21 03:44:17;;;;;;;2.65;1.17;;;10.00;99.90;;;;;;5052469;28;20465;-87
2021/01/21 03:46:43;;;;;;;2.72;1.10;;;10.10;99.90;;;;;;5019143;28;20029;-88
2021/01/21 03:49:08;;;;;;;3.85;0.93;;;10.20;99.90;;;;;;5052854;28;20040;-88
2021/01/21 03:51:34;;;;;;;3.15;1.20;;;10.30;99.90;;;;;;5052189;28;20025;-89
2021/01/21 03:54:00;;;;;;;1.70;0.90;;;10.40;99.90;;;;;;5053578;28;20428;-88
2021/01/21 03:56:26;;;;;;;4.10;0.80;;;10.50;99.90;;;;;;5053334;28;20013;-89
2021/01/21 03:58:52;;;;;;;4.90;0.95;;;10.60;99.90;;;;;;5051780;28;20488;-87
2021/01/21 04:01:18;;;;;;;1.13;0.60;;;10.80;99.90;;;;;;5035397;28;20033;-88
2021/01/21 04:03:43;;;;;;;2.65;1.00;;;10.90;99.90;;;;;;5053103;28;20025;-88
2021/01/21 04:06:10;;;;;;;2.97;0.90;;;11.00;99.90;;;;;;5053432;28;20499;-88
2021/01/21 04:08:36;;;;;;;2.75;0.70;;;10.90;99.90;;;;;;5052184;28;20108;-89
2021/01/21 04:11:02;;;;;;;2.40;0.77;;;10.80;99.90;;;;;;5052274;28;20075;-87
2021/01/21 04:13:27;;;;;;;2.15;1.10;;;10.50;99.90;;;;;;5052809;28;20095;-87
2021/01/21 04:15:53;;;;;;;2.70;0.98;;;10.30;99.90;;;;;;5052678;28;20108;-87
2021/01/21 04:18:19;;;;;;;2.40;1.05;;;10.20;99.90;;;;;;5056661;28;20027;-88
2021/01/21 04:20:45;;;;;;;4.07;0.98;;;10.10;99.90;;;;;;5055880;28;20017;-89
2021/01/21 04:23:11;;;;;;;2.85;1.00;;;10.10;99.90;;;;;;5039304;28;20040;-89
2021/01/21 04:25:40;;;;;;;3.72;1.10;;;10.00;99.90;;;;;;5055613;28;20029;-90
2021/01/21 04:28:05;;;;;;;4.10;0.90;;;9.90;99.90;;;;;;5056401;28;20120;-91
2021/01/21 04:30:31;;;;;;;1.55;0.70;;;9.30;99.90;;;;;;5056316;28;20064;-92
2021/01/21 04:32:57;;;;;;;6.93;0.70;;;8.60;99.90;;;;;;5055962;28;20021;-90
2021/01/21 04:35:23;;;;;;;1.92;0.60;;;8.00;99.90;;;;;;5056236;28;20516;-91
2021/01/21 04:37:48;;;;;;;1.70;0.32;;;7.50;99.90;;;;;;5056288;28;20031;-93
2021/01/21 04:40:14;;;;;;;1.15;0.40;;;7.20;99.90;;;;;;5055850;28;20032;-91
2021/01/21 04:42:41;;;;;;;4.55;0.80;;;7.00;99.90;;;;;;5057213;28;20025;-89
2021/01/21 04:45:10;;;;;;;3.95;0.63;;;6.90;99.90;;;;;;5056234;28;20464;-92
2021/01/21 04:47:37;;;;;;;3.88;0.60;;;6.80;99.90;;;;;;5056038;28;20040;-90
2021/01/21 04:50:06;;;;;;;3.70;0.70;;;6.70;99.90;;;;;;5056523;28;20059;-90
2021/01/21 04:52:37;;;;;;;3.13;0.70;;;6.60;99.90;;;;;;5055369;28;20049;-90
2021/01/21 04:55:12;;;;;;;3.95;0.77;;;6.70;99.90;;;;;;5055725;28;20119;-91
2021/01/21 04:57:52;;;;;;;4.10;0.85;;;6.60;99.90;;;;;;5055550;28;20419;-91
2021/01/21 05:00:18;;;;;;;2.08;0.50;;;6.50;99.90;;;;;;5056169;28;20032;-91
2021/01/21 05:02:45;;;;;;;6.90;0.55;;;6.40;99.90;;;;;;5055454;28;20298;-90
2021/01/21 05:05:14;;;;;;;3.17;0.70;;;6.40;99.90;;;;;;5056023;28;20032;-92
2021/01/21 05:07:40;;;;;;;5.50;1.42;;;6.30;99.90;;;;;;5055514;28;20017;-91
2021/01/21 05:10:10;;;;;;;4.65;0.60;;;6.30;99.90;;;;;;5055639;28;20025;-91
2021/01/21 05:12:36;;;;;;;5.07;0.57;;;6.20;99.90;;;;;;5056069;28;20028;-90
2021/01/21 05:15:10;;;;;;;4.25;0.60;;;6.20;99.90;;;;;;5055017;28;20037;-91
2021/01/21 05:17:39;;;;;;;4.70;0.70;;;6.20;99.90;;;;;;5038401;28;20025;-92
2021/01/21 05:20:05;;;;;;;2.55;0.70;;;6.10;99.90;;;;;;5056108;28;20060;-91
2021/01/21 05:22:31;;;;;;;2.85;0.55;;;6.10;99.90;;;;;;5054349;28;20114;-91
2021/01/21 05:24:58;;;;;;;3.95;0.70;;;6.00;99.90;;;;;;5055108;28;20063;-90
2021/01/21 05:27:24;;;;;;;6.72;0.73;;;6.00;99.90;;;;;;5054546;28;20025;-91
2021/01/21 05:29:50;;;;;;;5.80;0.85;;;6.10;99.90;;;;;;5054755;28;20031;-92
2021/01/21 05:32:20;;;;;;;3.95;0.75;;;6.10;99.90;;;;;;5054978;28;20107;-90
2021/01/21 05:34:52;;;;;;;4.88;0.80;;;6.10;99.90;;;;;;5051641;28;20036;-91
2021/01/21 05:37:18;;;;;;;6.33;0.63;;;6.10;99.90;;;;;;5051412;28;20063;-91
2021/01/21 05:39:45;;;;;;;4.32;0.75;;;6.10;99.90;;;;;;5054773;28;20025;-91
2021/01/21 05:42:12;;;;;;;6.72;0.60;;;6.20;99.90;;;;;;5038097;28;20025;-90
2021/01/21 05:44:44;;;;;;;4.63;0.60;;;6.20;99.90;;;;;;5055526;28;20228;-93
2021/01/21 05:47:10;;;;;;;6.88;0.75;;;6.20;99.90;;;;;;5054468;28;20036;-91
2021/01/21 05:49:39;;;;;;;6.97;1.00;;;6.20;99.90;;;;;;5054689;28;20017;-91
2021/01/21 05:52:05;;;;;;;7.57;1.00;;;6.20;99.90;;;;;;5054692;28;20056;-91
2021/01/21 05:54:34;;;;;;;5.18;0.80;;;6.30;99.90;;;;;;5055501;28;20412;-89
2021/01/21 05:57:06;;;;;;;6.15;1.10;;;6.30;99.90;;;;;;5054160;28;20078;-92
2021/01/21 05:59:33;;;;;;;4.57;1.05;;;6.30;99.90;;;;;;5053775;28;20029;-92
2021/01/21 06:02:00;;;;;;;7.53;1.27;;;6.40;99.90;;;;;;5052923;28;20384;-92
2021/01/21 06:04:28;;;;;;;7.03;0.90;;;6.40;99.90;;;;;;5052282;28;20128;-92
2021/01/21 06:06:58;;;;;;;7.35;0.90;;;6.40;99.90;;;;;;5052180;28;20040;-92
2021/01/21 06:09:25;;;;;;;5.20;0.98;;;6.40;99.90;;;;;;5036329;28;20030;-93
2021/01/21 06:12:01;;;;;;;5.65;1.48;;;6.40;99.90;;;;;;5051546;28;20025;-92
2021/01/21 06:14:28;;;;;;;5.93;1.02;;;6.40;99.90;;;;;;5052281;28;20021;-92
2021/01/21 06:16:54;;;;;;;5.57;0.95;;;6.40;99.90;;;;;;5019121;28;20033;-92
2021/01/21 06:19:20;;;;;;;8.85;1.10;;;6.40;99.90;;;;;;5054207;28;20457;-91
2021/01/21 06:21:57;;;;;;;10.32;1.30;;;6.40;99.90;;;;;;5053503;28;20117;-92
2021/01/21 06:24:36;;;;;;;9.40;1.33;;;6.30;99.90;;;;;;5053340;28;20031;-91
2021/01/21 06:27:04;;;;;;;6.63;1.10;;;6.30;99.90;;;;;;5053725;28;20111;-89
2021/01/21 06:29:33;;;;;;;8.52;1.05;;;6.30;99.90;;;;;;5053874;28;20079;-92
2021/01/21 06:32:02;;;;;;;9.35;1.27;;;6.40;99.90;;;;;;5053578;28;20031;-92
2021/01/21 06:34:37;;;;;;;8.65;1.45;;;6.40;99.90;;;;;;5053421;28;20091;-90
2021/01/21 06:37:21;;;;;;;8.38;1.02;;;6.30;99.90;;;;;;5054882;28;20025;-92
2021/01/21 06:40:01;;;;;;;10.38;1.65;;;6.30;99.90;;;;;;5036402;28;20466;-90
2021/01/21 06:42:33;;;;;;;8.20;1.17;;;6.30;99.90;;;;;;5036748;28;20029;-89
2021/01/21 06:44:59;;;;;;;8.98;1.13;;;6.30;99.90;;;;;;5053646;28;20033;-91
2021/01/21 06:47:27;;;;;;;8.25;1.30;;;6.20;99.90;;;;;;5053482;28;20091;-91
2021/01/21 06:49:56;;;;;;;11.25;1.55;;;6.20;99.90;;;;;;5049955;28;20078;-92
2021/01/21 06:52:44;;;;;;;7.22;1.25;;;6.20;99.90;;;;;;5040803;28;20535;-91
2021/01/21 06:55:11;;;;;;;7.88;1.38;;;6.20;99.90;;;;;;5039767;28;20443;-91
2021/01/21 06:57:37;;;;;;;6.70;0.88;;;6.10;99.90;;;;;;5039821;28;20045;-93
2021/01/21 07:00:07;;;;;;;5.88;1.30;;;6.10;99.90;;;;;;5042384;28;20425;-92
2021/01/21 07:02:46;;;;;;;6.32;1.48;;;6.00;99.90;;;;;;5040501;28;20124;-92
2021/01/21 07:05:34;;;;;;;9.43;1.42;;;6.00;99.90;;;;;;5040520;28;20032;-92
2021/01/21 07:08:02;;;;;;;5.57;1.30;;;6.10;99.90;;;;;;5041959;28;20495;-91
2021/01/21 07:10:48;;;;;;;7.78;1.60;;;6.10;99.90;;;;;;5041923;28;20523;-92
2021/01/21 07:13:26;;;;;;;7.43;0.98;;;6.10;99.90;;;;;;5035127;28;20029;-89
2021/01/21 07:15:58;;;;;;;4.30;0.95;;;6.00;99.90;;;;;;5015749;28;20073;-89
2021/01/21 07:18:34;;;;;;;6.47;1.00;;;6.00;99.90;;;;;;5033355;28;20474;-90
2021/01/21 07:21:00;;;;;;;7.22;1.15;;;6.00;99.90;;;;;;5001229;28;20033;-91
2021/01/21 07:23:55;;;;;;;7.35;1.20;;;5.90;99.90;;;;;;5033204;28;20029;-90
2021/01/21 07:26:42;;;;;;;12.55;1.50;;;5.90;99.90;;;;;;5033262;28;20492;-91
2021/01/21 07:29:14;;;;;;;8.95;1.50;;;5.90;99.90;;;;;;5033194;28;20030;-91
2021/01/21 07:31:59;;;;;;;8.55;1.20;;;5.80;99.90;;;;;;5032967;28;20034;-89
2021/01/21 07:34:47;;;;;;;7.32;1.40;;;5.80;99.90;;;;;;5033211;28;20033;-91
2021/01/21 07:37:30;;;;;;;8.52;1.20;;;5.70;99.90;;;;;;5033003;28;20043;-91
2021/01/21 07:40:05;;;;;;;7.45;1.83;;;5.70;99.90;;;;;;5017065;28;20032;-93
2021/01/21 07:42:37;;;;;;;6.85;1.45;;;5.60;99.90;;;;;;5033098;28;20492;-90
2021/01/21 07:45:14;;;;;;;9.10;1.20;;;5.60;99.90;;;;;;5047903;28;20040;-90
2021/01/21 07:47:55;;;;;;;7.00;1.27;;;5.60;99.90;;;;;;5052580;28;20021;-92
2021/01/21 07:50:34;;;;;;;7.95;1.92;;;5.60;99.90;;;;;;5054117;28;20460;-89
2021/01/21 07:53:05;;;;;;;6.38;1.20;;;5.60;99.90;;;;;;5057892;28;20041;-91
2021/01/21 07:55:41;;;;;;;9.73;2.60;;;5.60;99.90;;;;;;5040213;28;20037;-91
2021/01/21 07:58:35;;;;;;;7.35;1.38;;;5.60;99.90;;;;;;5057885;28;20033;-91
2021/01/21 08:01:13;;;;;;;8.70;1.15;;;5.70;99.90;;;;;;5040914;28;20017;-90
2021/01/21 08:03:48;;;;;;;5.55;1.13;;;5.70;99.90;;;;;;5057794;28;20029;-90
2021/01/21 08:06:23;;;;;;;9.50;1.55;;;5.70;99.90;;;;;;5056570;28;20021;-89
2021/01/21 08:09:12;;;;;;;8.02;1.67;;;5.70;99.90;;;;;;5056918;28;20032;-89
2021/01/21 08:11:48;;;;;;;;;;;;;;;;;;;;;
2021/01/21 08:14:15;;;;;;;7.97;1.98;;;5.80;99.90;;;;;;5057204;28;20031;-90
2021/01/21 08:16:45;;;;;;;5.32;1.30;;;5.80;99.90;;;;;;5056958;28;20079;-91
2021/01/21 08:19:16;;;;;;;12.85;2.47;;;5.80;99.90;;;;;;5056266;28;20112;-90
2021/01/21 08:21:42;;;;;;;7.35;1.75;;;5.90;99.90;;;;;;5038991;28;20032;-91
2021/01/21 08:24:11;;;;;;;5.13;1.35;;;5.90;99.90;;;;;;5056074;28;20029;-92
2021/01/21 08:26:40;;;;;;;6.55;1.42;;;5.90;99.90;;;;;;5039927;28;20041;-91
2021/01/21 08:29:12;;;;;;;12.23;2.15;;;5.90;99.90;;;;;;5055709;28;20075;-90
2021/01/21 08:31:47;;;;;;;7.97;1.70;;;5.90;99.90;;;;;;5039879;28;20025;-90
2021/01/21 08:34:35;;;;;;;9.68;1.77;;;5.90;99.90;;;;;;5056294;28;20029;-92
2021/01/21 08:37:06;;;;;;;7.65;1.77;;;5.90;99.90;;;;;;5056103;28;20033;-90
2021/01/21 08:39:35;;;;;;;7.63;1.52;;;5.90;99.90;;;;;;5054380;28;20033;-91
2021/01/21 08:42:09;;;;;;;9.50;1.80;;;5.90;99.90;;;;;;5055948;28;20021;-90
2021/01/21 08:44:43;;;;;;;5.43;1.52;;;5.90;99.90;;;;;;5055412;28;20037;-90
2021/01/21 08:47:13;;;;;;;11.77;2.20;;;6.00;99.90;;;;;;5039305;28;20086;-89
2021/01/21 08:49:50;;;;;;;13.48;1.88;;;6.00;99.90;;;;;;5055484;28;20116;-90
2021/01/21 08:52:49;;;;;;;;;;;;;;;;;;;;;
2021/01/21 08:55:17;;;;;;;10.57;1.58;;;6.10;99.90;;;;;;5056078;28;20485;-90
2021/01/21 08:58:30;;;;;;;13.77;1.85;;;6.10;99.90;;;;;;5056511;28;20480;-90
2021/01/21 09:01:12;;;;;;;11.35;1.92;;;6.10;99.90;;;;;;4998500;28;20129;-90
2021/01/21 09:03:54;;;;;;;9.95;1.98;;;6.20;99.90;;;;;;4997564;28;20073;-90
2021/01/21 09:06:28;;;;;;;8.27;1.65;;;6.20;99.90;;;;;;5039872;28;20472;-91
2021/01/21 09:09:25;;;;;;;9.98;2.42;;;6.40;99.90;;;;;;5038814;28;20037;-90
2021/01/21 09:12:21;;;;;;;8.15;1.95;;;6.50;99.90;;;;;;5056238;28;20021;-91
2021/01/21 09:15:01;;;;;;;13.18;1.83;;;7.20;99.90;;;;;;5045884;28;20041;-91
2021/01/21 09:18:11;;;;;;;11.38;3.50;;;8.60;99.90;;;;;;5055418;28;20037;-91
2021/01/21 09:20:44;;;;;;;10.77;2.75;;;9.50;99.90;;;;;;5038687;28;20041;-92
2021/01/21 09:23:20;;;;;;;;;;;10.40;99.50;;;;;;5045783;28;20119;-90
2021/01/21 09:26:20;;;;;;;;;;;;;;;;;;;;;
2021/01/21 09:29:22;;;;;;;10.82;1.55;;;11.20;95.80;;;;;;5052936;28;20047;-90
2021/01/21 09:34:38;;;;;;;14.43;2.03;;;12.00;94.90;;;;;;5045095;28;20029;-90
2021/01/21 09:37:09;;;;;;;13.20;1.98;;;12.30;94.40;;;;;;5055601;28;20078;-90
2021/01/21 09:39:35;;;;;;;9.07;1.73;;;12.50;93.50;;;;;;5054913;28;20069;-91
2021/01/21 09:42:07;;;;;;;7.20;1.42;;;12.70;92.40;;;;;;5037905;28;20029;-91
2021/01/21 09:44:34;;;;;;;8.55;1.85;;;12.90;91.60;;;;;;5043597;28;20030;-91
2021/01/21 09:47:11;;;;;;;7.47;1.40;;;12.80;91.30;;;;;;5042989;28;20086;-91
2021/01/21 09:49:37;;;;;;;12.65;2.15;;;12.90;91.30;;;;;;5042685;28;20040;-91
2021/01/21 09:52:05;;;;;;;10.68;2.33;;;13.10;90.70;;;;;;5046154;28;20477;-88
2021/01/21 09:54:32;;;;;;;12.23;2.25;;;13.30;89.30;;;;;;5045419;28;20053;-89
2021/01/21 09:56:59;;;;;;;10.93;1.88;;;13.40;89.80;;;;;;5042055;28;20261;-89
2021/01/21 09:59:32;;;;;;;9.38;1.55;;;13.50;89.60;;;;;;5044839;28;20021;-91
2021/01/21 10:02:01;;;;;;;12.13;2.05;;;13.40;88.80;;;;;;5045241;28;20653;-90
2021/01/21 10:04:54;;;;;;;;;;;;;;;;;;;;;
2021/01/21 10:07:36;;;;;;;;;;;;;;;;;;;;;
2021/01/21 10:10:30;;;;;;;11.68;1.98;;;11.90;92.10;;;;;;5044942;28;20331;-92
2021/01/21 10:12:59;;;;;;;7.45;1.67;;;11.70;92.00;;;;;;5041125;28;20540;-90
2021/01/21 10:15:25;;;;;;;8.70;1.85;;;11.90;92.90;;;;;;5040482;28;20025;-89
2021/01/21 10:18:00;;;;;;;6.65;1.35;;;12.70;91.60;;;;;;5036998;28;20026;-89
2021/01/21 10:20:39;;;;;;;7.82;1.67;;;13.10;90.50;;;;;;5046523;28;20013;-90
2021/01/21 10:23:05;;;;;;;11.88;2.55;;;12.70;90.00;;;;;;5048100;28;20029;-91
2021/01/21 10:25:38;;;;;;;7.70;1.85;;;11.80;90.60;;;;;;5039068;28;20032;-90
2021/01/21 10:28:10;;;;;;;9.15;1.98;;;11.10;92.40;;;;;;5047415;28;20068;-91
2021/01/21 10:30:38;;;;;;;8.43;2.78;;;10.80;93.70;;;;;;5050861;28;20109;-90
2021/01/21 10:33:09;;;;;;;8.55;1.75;;;10.90;94.30;;;;;;5052619;28;20103;-91
2021/01/21 10:35:38;;;;;;;10.25;1.67;;;11.50;94.20;;;;;;5050436;28;20072;-90
2021/01/21 10:40:57;;;;;;;6.78;1.33;;;11.20;93.10;;;;;;5052194;28;20035;-90
2021/01/21 10:43:24;;;;;;;9.10;1.40;;;10.90;94.00;;;;;;5050682;28;20064;-90
2021/01/21 10:45:50;;;;;;;8.02;1.45;;;10.70;94.30;;;;;;5032934;28;20060;-88
2021/01/21 10:48:17;;;;;;;9.15;1.90;;;10.60;95.00;;;;;;5051262;28;20067;-90
2021/01/21 10:50:48;;;;;;;7.50;1.45;;;10.40;95.20;;;;;;5047470;28;20044;-89
2021/01/21 10:53:18;;;;;;;7.72;1.63;;;10.10;95.20;;;;;;5050569;28;20111;-90
2021/01/21 10:55:46;;;;;;;5.75;1.52;;;9.90;96.30;;;;;;5050505;28;20037;-89
2021/01/21 10:58:13;;;;;;;12.55;1.67;;;9.70;96.40;;;;;;5050201;28;20025;-89
2021/01/21 11:00:44;;;;;;;5.60;1.42;;;9.60;96.90;;;;;;5050717;28;20059;-91
2021/01/21 11:03:15;;;;;;;7.82;1.40;;;9.60;97.20;;;;;;5045345;28;20029;-91
2021/01/21 11:05:46;;;;;;;5.47;1.17;;;9.70;97.60;;;;;;5053935;28;20032;-90
2021/01/21 11:08:12;;;;;;;7.32;1.30;;;9.80;97.20;;;;;;5049614;28;20036;-89
2021/01/21 11:10:40;;;;;;;6.97;1.63;;;9.90;97.00;;;;;;5050280;28;20552;-89
2021/01/21 11:13:06;;;;;;;11.65;2.10;;;9.80;96.70;;;;;;5050266;28;20132;-90
2021/01/21 11:15:40;;;;;;;6.13;1.50;;;9.60;96.90;;;;;;5051109;28;20537;-89
2021/01/21 11:18:09;;;;;;;9.85;1.67;;;9.40;96.90;;;;;;5030843;28;20109;-89
2021/01/21 11:20:35;;;;;;;13.52;2.08;;;9.20;97.50;;;;;;5038725;28;20017;-87
2021/01/21 11:23:02;;;;;;;7.57;1.52;;;9.10;98.10;;;;;;5051045;28;20043;-89
2021/01/21 11:25:39;;;;;;;7.65;1.65;;;9.00;99.10;;;;;;5044570;28;20028;-90
2021/01/21 11:28:22;;;;;;;10.48;1.70;;;8.80;98.90;;;;;;5047623;28;20025;-93
2021/01/21 11:30:49;;;;;;;6.38;1.42;;;8.70;99.40;;;;;;5037558;28;20080;-88
2021/01/21 11:33:25;;;;;;;8.32;1.75;;;8.70;99.50;;;;;;5051116;28;20100;-90
2021/01/21 11:36:12;;;;;;;9.50;1.73;;;8.80;99.80;;;;;;5051546;28;20051;-90
2021/01/21 11:38:48;;;;;;;5.85;2.00;;;8.90;99.00;;;;;;5046083;28;20203;-90
2021/01/21 11:41:34;;;;;;;6.80;1.75;;;9.00;99.30;;;;;;5050122;28;20063;-91
2021/01/21 11:44:17;;;;;;;6.97;1.52;;;9.00;99.30;;;;;;5049352;28;20086;-91
2021/01/21 11:47:01;;;;;;;6.65;1.40;;;9.00;99.70;;;;;;5049484;28;20036;-89
2021/01/21 11:49:51;;;;;;;8.45;2.33;;;8.90;99.90;;;;;;5048800;28;20033;-89
2021/01/21 11:52:52;;;;;;;5.60;1.27;;;8.80;98.50;;;;;;5030014;28;20160;-89
2021/01/21 11:55:22;;;;;;;7.90;1.45;;;8.80;99.80;;;;;;5042700;28;20040;-90
2021/01/21 11:57:51;;;;;;;5.97;1.25;;;8.70;99.50;;;;;;5050449;28;20063;-91
2021/01/21 12:00:24;;;;;;;9.38;1.80;;;8.70;99.90;;;;;;5049974;28;20033;-90
2021/01/21 12:02:55;;;;;;;7.82;1.45;;;8.80;99.80;;;;;;5049343;28;20025;-91
2021/01/21 12:05:26;;;;;;;6.57;1.33;;;9.00;99.60;;;;;;5050809;28;20116;-90
2021/01/21 12:08:33;;;;;;;8.23;1.40;;;9.40;99.20;;;;;;5048245;28;20052;-90
2021/01/21 12:11:05;;;;;;;11.07;2.10;;;10.20;98.00;;;;;;5046265;28;20029;-90
2021/01/21 12:13:36;;;;;;;6.63;1.33;;;10.30;96.90;;;;;;5031164;28;20082;-89
2021/01/21 12:16:15;;;;;;;6.90;1.50;;;10.30;96.80;;;;;;5019812;28;20079;-92
2021/01/21 12:18:46;;;;;;;7.47;1.60;;;10.20;96.90;;;;;;5031118;28;20856;-92
2021/01/21 12:21:13;;;;;;;5.50;1.73;;;10.00;97.70;;;;;;5031273;28;20036;-91
2021/01/21 12:23:40;;;;;;;6.07;1.50;;;9.90;97.10;;;;;;5030996;28;20067;-89
2021/01/21 12:26:48;;;;;;;7.63;1.65;;;9.70;97.60;;;;;;5048102;28;20071;-89
2021/01/21 12:29:16;;;;;;;9.30;1.80;;;9.60;97.70;;;;;;5040796;28;20029;-90
2021/01/21 12:31:49;;;;;;;9.70;2.13;;;9.50;97.80;;;;;;5031209;28;20172;-91
2021/01/21 12:34:59;;;;;;;6.78;1.88;;;9.50;98.00;;;;;;5020205;28;20049;-90
2021/01/21 12:37:39;;;;;;;5.53;1.30;;;9.40;97.80;;;;;;5027130;28;20041;-91
2021/01/21 12:40:09;;;;;;;9.80;1.70;;;9.30;98.30;;;;;;5018518;28;20036;-92
2021/01/21 12:43:14;;;;;;;;;;;;;;;;;;;;;
2021/01/21 12:49:18;;;;;;;9.38;1.95;;;8.90;98.20;;;;;;5040509;28;20527;-89
2021/01/21 12:51:55;;;;;;;10.60;1.83;;;8.80;99.30;;;;;;5032763;28;20033;-90
2021/01/21 12:54:24;;;;;;;5.10;1.45;;;8.80;98.80;;;;;;5032754;28;20053;-90
2021/01/21 12:57:49;;;;;;;10.63;1.60;;;8.90;98.20;;;;;;5033278;28;20121;-90
2021/01/21 13:00:17;;;;;;;7.72;1.75;;;9.00;98.50;;;;;;5046408;28;20036;-89
2021/01/21 13:02:45;;;;;;;6.43;1.20;;;9.10;98.60;;;;;;5045809;28;20109;-89
2021/01/21 13:05:20;;;;;;;5.95;1.20;;;9.20;99.00;;;;;;5043549;28;20025;-91
2021/01/21 13:08:02;;;;;;;6.95;1.80;;;9.30;99.00;;;;;;5025716;28;20638;-89
2021/01/21 13:10:59;;;;;;;5.50;1.30;;;9.30;99.40;;;;;;5041916;28;20037;-93
2021/01/21 13:13:38;;;;;;;;;;;;;;;;;;;;;
2021/01/21 13:16:26;;;;;;;9.80;1.48;;;9.30;98.10;;;;;;5038965;28;20023;-91
2021/01/21 13:19:00;;;;;;;7.10;2.33;;;9.30;97.20;;;;;;5013036;28;20029;-89
2021/01/21 13:21:44;;;;;;;6.55;1.30;;;9.30;97.70;;;;;;5013937;28;20092;-89
2021/01/21 13:24:23;;;;;;;6.45;1.95;;;9.30;98.00;;;;;;5014923;28;20136;-89
2021/01/21 13:27:15;;;;;;;8.10;1.80;;;9.30;97.70;;;;;;5025640;28;20034;-90
2021/01/21 13:33:17;;;;;;;8.93;1.90;;;9.30;97.40;;;;;;4973234;28;20034;-89
2021/01/21 13:36:24;;;;;;;6.63;1.30;;;9.20;97.30;;;;;;4992718;28;20534;-89
2021/01/21 13:39:15;;;;;;;5.72;1.33;;;9.10;97.60;;;;;;4970536;28;20050;-87
2021/01/21 13:42:01;;;;;;;;;;;;;;;;;;;;;
2021/01/21 13:44:51;;;;;;;;;;;;;;;;;;;;;
2021/01/21 13:47:57;;;;;;;6.05;1.23;;;8.90;98.50;;;;;;4990420;28;20493;-92
2021/01/21 13:51:08;;;;;;;6.70;1.10;;;8.90;98.80;;;;;;5019578;28;20057;-92
2021/01/21 13:58:01;;;;;;;6.60;1.50;;;9.00;97.80;;;;;;5005880;28;20610;-92
2021/01/21 14:00:39;;;;;;;;;;;;;;;;;;;;;
2021/01/21 14:03:07;;;;;;;9.90;1.40;;;9.10;97.90;;;;;;5045895;28;20037;-89
2021/01/21 14:05:45;;;;;;;4.28;1.38;;;9.10;98.50;;;;;;5016758;28;20029;-88
2021/01/21 14:08:38;;;;;;;7.93;1.40;;;9.10;97.90;;;;;;5031341;28;20035;-90
2021/01/21 14:11:24;;;;;;;8.32;1.92;;;9.10;97.60;;;;;;5032144;28;20086;-91
2021/01/21 14:13:56;;;;;;;6.32;1.20;;;9.10;98.30;;;;;;5018643;28;20040;-87
2021/01/21 14:16:31;;;;;;;5.13;1.20;;;9.00;97.90;;;;;;5051297;28;20067;-89
2021/01/21 14:19:21;;;;;;;;;;;;;;;;;;;;;
2021/01/21 14:21:49;;;;;;;4.82;1.40;;;8.90;98.00;;;;;;5032497;28;20051;-89